createdAt,value
2017-05-09T00:00:31.713Z,0
2017-05-09T00:01:40.667Z,0
2017-05-09T00:02:49.942Z,0
2017-05-09T00:03:58.894Z,0
2017-05-09T00:05:08.260Z,0
2017-05-09T00:06:17.513Z,0
2017-05-09T00:07:26.467Z,0
2017-05-09T00:08:35.504Z,0
2017-05-09T00:09:44.464Z,0
2017-05-09T00:10:53.419Z,0
2017-05-09T00:12:02.670Z,0
2017-05-09T00:13:11.629Z,0
2017-05-09T00:14:20.591Z,0
2017-05-09T00:15:29.553Z,0
2017-05-09T00:16:38.594Z,0
2017-05-09T00:17:47.847Z,0
2017-05-09T00:18:56.799Z,0
2017-05-09T00:20:05.752Z,0
2017-05-09T00:21:14.797Z,0
2017-05-09T00:22:23.790Z,0
2017-05-09T00:23:33.042Z,0
2017-05-09T00:24:42.000Z,0
2017-05-09T00:25:50.960Z,0
2017-05-09T00:26:59.909Z,0
2017-05-09T00:28:08.856Z,0
2017-05-09T00:29:18.104Z,0
2017-05-09T00:30:27.388Z,0
2017-05-09T00:31:36.345Z,0
2017-05-09T00:32:45.311Z,0
2017-05-09T00:33:54.261Z,0
2017-05-09T00:35:03.466Z,0
2017-05-09T00:36:12.424Z,0
2017-05-09T00:37:21.374Z,0
2017-05-09T00:38:30.364Z,0
2017-05-09T00:39:39.404Z,0
2017-05-09T00:40:48.657Z,0
2017-05-09T00:41:57.615Z,0
2017-05-09T00:43:06.565Z,0
2017-05-09T00:44:15.516Z,0
2017-05-09T00:45:24.547Z,0
2017-05-09T00:46:33.800Z,0
2017-05-09T00:47:42.753Z,0
2017-05-09T00:48:51.795Z,0
2017-05-09T00:50:00.832Z,0
2017-05-09T00:51:10.195Z,0
2017-05-09T00:52:19.536Z,0
2017-05-09T00:53:28.582Z,0
2017-05-09T00:54:37.544Z,0
2017-05-09T00:55:46.494Z,0
2017-05-09T00:56:55.454Z,0
2017-05-09T00:58:04.716Z,0
2017-05-09T00:59:13.674Z,0
2017-05-09T01:00:22.627Z,0
2017-05-09T01:01:31.577Z,0
2017-05-09T01:02:40.527Z,0
2017-05-09T01:03:49.725Z,0
2017-05-09T01:04:58.672Z,0
2017-05-09T01:06:07.623Z,0
2017-05-09T01:07:16.579Z,0
2017-05-09T01:08:25.538Z,0
2017-05-09T01:09:34.799Z,0
2017-05-09T01:10:43.759Z,0
2017-05-09T01:11:52.712Z,0
2017-05-09T01:13:01.768Z,0
2017-05-09T01:14:10.724Z,0
2017-05-09T01:15:19.975Z,0
2017-05-09T01:16:28.926Z,0
2017-05-09T01:17:37.878Z,0
2017-05-09T01:18:46.841Z,0
2017-05-09T01:19:55.793Z,0
2017-05-09T01:21:05.052Z,0
2017-05-09T01:22:13.997Z,0
2017-05-09T01:23:22.949Z,0
2017-05-09T01:24:32.079Z,0
2017-05-09T01:25:41.033Z,0
2017-05-09T01:26:50.287Z,0
2017-05-09T01:27:59.236Z,0
2017-05-09T01:29:08.192Z,0
2017-05-09T01:30:17.140Z,0
2017-05-09T01:31:26.094Z,0
2017-05-09T01:32:35.344Z,0
2017-05-09T01:33:44.306Z,0
2017-05-09T01:34:53.379Z,0
2017-05-09T01:36:02.337Z,0
2017-05-09T01:37:11.292Z,0
2017-05-09T01:38:20.869Z,0
2017-05-09T01:39:29.830Z,0
2017-05-09T01:40:38.782Z,0
2017-05-09T01:41:47.736Z,0
2017-05-09T01:42:57.014Z,0
2017-05-09T01:44:06.225Z,0
2017-05-09T01:45:15.265Z,0
2017-05-09T01:46:24.221Z,0
2017-05-09T01:47:33.178Z,0
2017-05-09T01:48:42.128Z,0
2017-05-09T01:49:51.388Z,0
2017-05-09T01:51:00.339Z,0
2017-05-09T01:52:09.380Z,0
2017-05-09T01:53:18.367Z,0
2017-05-09T01:54:27.318Z,0
2017-05-09T01:55:36.521Z,0
2017-05-09T01:56:45.560Z,0
2017-05-09T01:57:54.522Z,0
2017-05-09T01:59:03.555Z,0
2017-05-09T02:00:12.603Z,0
2017-05-09T02:01:21.853Z,0
2017-05-09T02:02:30.844Z,0
2017-05-09T02:03:39.805Z,0
2017-05-09T02:04:48.846Z,0
2017-05-09T02:05:57.795Z,0
2017-05-09T02:07:07.003Z,0
2017-05-09T02:08:15.959Z,0
2017-05-09T02:09:24.908Z,0
2017-05-09T02:10:33.859Z,0
2017-05-09T02:11:42.816Z,0
2017-05-09T02:12:52.017Z,0
2017-05-09T02:14:00.975Z,0
2017-05-09T02:15:09.931Z,0
2017-05-09T02:16:18.918Z,0
2017-05-09T02:17:27.882Z,0
2017-05-09T02:18:37.136Z,0
2017-05-09T02:19:46.088Z,0
2017-05-09T02:20:55.039Z,0
2017-05-09T02:22:03.997Z,0
2017-05-09T02:23:12.960Z,0
2017-05-09T02:24:22.224Z,0
2017-05-09T02:25:31.197Z,0
2017-05-09T02:26:40.153Z,0
2017-05-09T02:27:49.103Z,0
2017-05-09T02:28:58.148Z,0
2017-05-09T02:30:07.405Z,0
2017-05-09T02:31:16.367Z,0
2017-05-09T02:32:25.321Z,0
2017-05-09T02:33:34.273Z,0
2017-05-09T02:34:43.219Z,0
2017-05-09T02:35:52.480Z,0
2017-05-09T02:37:01.436Z,0
2017-05-09T02:38:10.712Z,0
2017-05-09T02:39:19.672Z,0
2017-05-09T02:40:28.624Z,0
2017-05-09T02:41:37.873Z,0
2017-05-09T02:42:46.820Z,0
2017-05-09T02:43:55.869Z,0
2017-05-09T02:45:04.824Z,0
2017-05-09T02:46:13.773Z,0
2017-05-09T02:47:22.983Z,0
2017-05-09T02:48:32.030Z,0
2017-05-09T02:49:40.984Z,0
2017-05-09T02:50:49.933Z,0
2017-05-09T02:51:58.886Z,0
2017-05-09T02:53:08.229Z,0
2017-05-09T02:54:17.182Z,0
2017-05-09T02:55:26.223Z,4
2017-05-09T02:56:35.170Z,4
2017-05-09T02:57:44.118Z,0
2017-05-09T02:58:53.375Z,4
2017-05-09T03:00:02.329Z,4
2017-05-09T03:01:11.282Z,4
2017-05-09T03:02:20.272Z,4
2017-05-09T03:03:29.319Z,4
2017-05-09T03:04:38.614Z,4
2017-05-09T03:05:47.563Z,8
2017-05-09T03:06:56.521Z,8
2017-05-09T03:08:05.479Z,8
2017-05-09T03:09:14.430Z,12
2017-05-09T03:10:38.820Z,12
2017-05-09T03:11:47.770Z,12
2017-05-09T03:12:56.722Z,12
2017-05-09T03:14:05.686Z,16
2017-05-09T03:15:14.636Z,16
2017-05-09T03:16:23.835Z,16
2017-05-09T03:17:32.793Z,20
2017-05-09T03:18:41.745Z,20
2017-05-09T03:19:50.701Z,24
2017-05-09T03:20:59.657Z,24
2017-05-09T03:22:08.909Z,32
2017-05-09T03:23:17.867Z,32
2017-05-09T03:24:26.824Z,36
2017-05-09T03:25:36.104Z,40
2017-05-09T03:26:45.058Z,44
2017-05-09T03:27:54.260Z,48
2017-05-09T03:29:03.224Z,52
2017-05-09T03:30:12.203Z,56
2017-05-09T03:31:21.154Z,64
2017-05-09T03:32:30.106Z,68
2017-05-09T03:33:39.308Z,72
2017-05-09T03:34:48.265Z,72
2017-05-09T03:35:57.214Z,76
2017-05-09T03:37:06.180Z,80
2017-05-09T03:38:15.157Z,92
2017-05-09T03:39:24.361Z,92
2017-05-09T03:40:33.491Z,100
2017-05-09T03:41:42.447Z,104
2017-05-09T03:42:51.401Z,116
2017-05-09T03:44:00.442Z,124
2017-05-09T03:45:09.646Z,140
2017-05-09T03:46:18.595Z,152
2017-05-09T03:47:27.546Z,164
2017-05-09T03:48:36.593Z,164
2017-05-09T03:49:45.883Z,164
2017-05-09T03:50:55.085Z,152
2017-05-09T03:52:04.034Z,148
2017-05-09T03:53:12.987Z,156
2017-05-09T03:54:21.949Z,160
2017-05-09T03:55:30.904Z,168
2017-05-09T03:56:40.229Z,176
2017-05-09T03:57:49.271Z,176
2017-05-09T03:58:58.229Z,180
2017-05-09T04:00:07.182Z,188
2017-05-09T04:01:16.135Z,200
2017-05-09T04:02:25.394Z,208
2017-05-09T04:03:34.366Z,212
2017-05-09T04:04:43.415Z,220
2017-05-09T04:05:52.375Z,228
2017-05-09T04:07:01.335Z,236
2017-05-09T04:08:10.632Z,244
2017-05-09T04:09:19.578Z,256
2017-05-09T04:10:28.536Z,272
2017-05-09T04:11:37.483Z,288
2017-05-09T04:12:46.435Z,296
2017-05-09T04:13:55.651Z,296
2017-05-09T04:15:04.598Z,308
2017-05-09T04:16:13.554Z,324
2017-05-09T04:17:22.830Z,348
2017-05-09T04:18:31.793Z,376
2017-05-09T04:19:40.997Z,388
2017-05-09T04:20:49.950Z,404
2017-05-09T04:21:58.912Z,420
2017-05-09T04:23:07.898Z,444
2017-05-09T04:24:16.938Z,460
2017-05-09T04:25:26.240Z,500
2017-05-09T04:26:35.190Z,528
2017-05-09T04:27:44.144Z,560
2017-05-09T04:28:53.183Z,552
2017-05-09T04:30:02.143Z,536
2017-05-09T04:31:11.436Z,548
2017-05-09T04:32:20.386Z,560
2017-05-09T04:33:29.351Z,552
2017-05-09T04:34:38.302Z,528
2017-05-09T04:35:47.250Z,496
2017-05-09T04:36:56.454Z,472
2017-05-09T04:38:05.410Z,464
2017-05-09T04:39:14.365Z,468
2017-05-09T04:40:23.319Z,476
2017-05-09T04:41:32.279Z,484
2017-05-09T04:42:41.820Z,480
2017-05-09T04:43:50.779Z,480
2017-05-09T04:44:59.815Z,492
2017-05-09T04:46:08.771Z,516
2017-05-09T04:47:17.722Z,552
2017-05-09T04:48:26.926Z,576
2017-05-09T04:49:35.884Z,584
2017-05-09T04:50:44.834Z,592
2017-05-09T04:51:53.881Z,604
2017-05-09T04:53:02.840Z,600
2017-05-09T04:54:12.041Z,584
2017-05-09T04:55:20.990Z,576
2017-05-09T04:56:29.946Z,568
2017-05-09T04:57:38.901Z,556
2017-05-09T04:58:48.191Z,540
2017-05-09T04:59:57.408Z,540
2017-05-09T05:01:06.361Z,552
2017-05-09T05:02:15.314Z,584
2017-05-09T05:03:24.268Z,648
2017-05-09T05:04:33.223Z,708
2017-05-09T05:05:42.518Z,776
2017-05-09T05:06:51.465Z,876
2017-05-09T05:08:00.421Z,964
2017-05-09T05:09:09.369Z,1048
2017-05-09T05:10:18.323Z,1144
2017-05-09T05:11:27.528Z,1212
2017-05-09T05:12:36.481Z,1232
2017-05-09T05:13:45.759Z,1248
2017-05-09T05:14:54.715Z,1252
2017-05-09T05:16:03.670Z,1272
2017-05-09T05:17:12.874Z,1232
2017-05-09T05:18:21.826Z,1152
2017-05-09T05:19:31.029Z,1096
2017-05-09T05:20:40.083Z,1080
2017-05-09T05:21:49.118Z,1088
2017-05-09T05:22:58.324Z,1080
2017-05-09T05:24:08.209Z,1072
2017-05-09T05:25:17.166Z,1032
2017-05-09T05:26:26.118Z,1012
2017-05-09T05:27:35.077Z,1024
2017-05-09T05:28:44.371Z,1008
2017-05-09T05:29:53.324Z,988
2017-05-09T05:31:02.276Z,888
2017-05-09T05:32:11.317Z,748
2017-05-09T05:33:20.273Z,728
2017-05-09T05:34:29.474Z,776
2017-05-09T05:35:38.434Z,868
2017-05-09T05:36:47.390Z,952
2017-05-09T05:37:56.547Z,1048
2017-05-09T05:39:05.501Z,1132
2017-05-09T05:40:14.816Z,1148
2017-05-09T05:41:23.819Z,1172
2017-05-09T05:42:33.289Z,1188
2017-05-09T05:43:42.289Z,1136
2017-05-09T05:44:51.296Z,1076
2017-05-09T05:46:00.610Z,1048
2017-05-09T05:47:09.692Z,1068
2017-05-09T05:48:18.650Z,1132
2017-05-09T05:49:27.840Z,1204
2017-05-09T05:50:37.384Z,1272
2017-05-09T05:51:46.813Z,1260
2017-05-09T05:52:55.803Z,1240
2017-05-09T05:54:04.924Z,1260
2017-05-09T05:55:14.007Z,1236
2017-05-09T05:56:22.964Z,1204
2017-05-09T05:57:32.262Z,1240
2017-05-09T05:58:41.546Z,1404
2017-05-09T05:59:50.506Z,1548
2017-05-09T06:00:59.513Z,1540
2017-05-09T06:02:08.469Z,1524
2017-05-09T06:03:17.724Z,1468
2017-05-09T06:04:26.713Z,1460
2017-05-09T06:05:35.713Z,1484
2017-05-09T06:06:44.684Z,1576
2017-05-09T06:07:54.182Z,1784
2017-05-09T06:09:03.726Z,1992
2017-05-09T06:10:12.902Z,2124
2017-05-09T06:11:22.019Z,2228
2017-05-09T06:12:31.112Z,2284
2017-05-09T06:13:40.308Z,2364
2017-05-09T06:14:49.782Z,2472
2017-05-09T06:15:58.803Z,2620
2017-05-09T06:17:08.035Z,2708
2017-05-09T06:18:17.163Z,2780
2017-05-09T06:19:26.147Z,2844
2017-05-09T06:20:35.727Z,2908
2017-05-09T06:21:44.767Z,2936
2017-05-09T06:22:53.724Z,2988
2017-05-09T06:24:02.681Z,3084
2017-05-09T06:25:11.642Z,3188
2017-05-09T06:26:20.850Z,3280
2017-05-09T06:27:29.807Z,3408
2017-05-09T06:28:38.759Z,3548
2017-05-09T06:29:47.719Z,3688
2017-05-09T06:30:56.673Z,3848
2017-05-09T06:32:05.955Z,4032
2017-05-09T06:33:14.913Z,4220
2017-05-09T06:34:24.191Z,4340
2017-05-09T06:35:33.142Z,4372
2017-05-09T06:36:42.133Z,4368
2017-05-09T06:37:51.482Z,4212
2017-05-09T06:39:00.436Z,3716
2017-05-09T06:40:09.388Z,2968
2017-05-09T06:41:18.668Z,2408
2017-05-09T06:42:27.625Z,2136
2017-05-09T06:43:36.878Z,1804
2017-05-09T06:44:45.836Z,1740
2017-05-09T06:45:55.126Z,1816
2017-05-09T06:47:04.082Z,1904
2017-05-09T06:48:13.043Z,1716
2017-05-09T06:49:22.633Z,1600
2017-05-09T06:50:31.679Z,1408
2017-05-09T06:51:40.756Z,1512
2017-05-09T06:52:49.749Z,1828
2017-05-09T06:53:58.741Z,2056
2017-05-09T06:55:08.107Z,2064
2017-05-09T06:56:17.086Z,2204
2017-05-09T06:57:26.057Z,2636
2017-05-09T06:58:35.040Z,2936
2017-05-09T06:59:44.101Z,3400
2017-05-09T07:00:53.378Z,3800
2017-05-09T07:02:02.357Z,3956
2017-05-09T07:03:11.332Z,4080
2017-05-09T07:04:20.311Z,4240
2017-05-09T07:05:29.374Z,4276
2017-05-09T07:06:38.631Z,4312
2017-05-09T07:07:47.591Z,4176
2017-05-09T07:08:56.549Z,4100
2017-05-09T07:10:05.508Z,4072
2017-05-09T07:11:14.462Z,4080
2017-05-09T07:12:23.989Z,3936
2017-05-09T07:13:32.945Z,3888
2017-05-09T07:14:41.939Z,3720
2017-05-09T07:15:50.892Z,3588
2017-05-09T07:17:00.170Z,3560
2017-05-09T07:18:09.389Z,3860
2017-05-09T07:19:18.348Z,4076
2017-05-09T07:20:27.352Z,4876
2017-05-09T07:21:36.394Z,4232
2017-05-09T07:22:46.169Z,4404
2017-05-09T07:23:55.376Z,3984
2017-05-09T07:25:04.346Z,3904
2017-05-09T07:26:13.394Z,3844
2017-05-09T07:27:22.349Z,4008
2017-05-09T07:28:31.303Z,4172
2017-05-09T07:29:40.510Z,4328
2017-05-09T07:30:49.521Z,4432
2017-05-09T07:31:58.481Z,4356
2017-05-09T07:33:07.526Z,4412
2017-05-09T07:34:16.480Z,4256
2017-05-09T07:35:25.691Z,4056
2017-05-09T07:36:34.646Z,3920
2017-05-09T07:37:43.610Z,3708
2017-05-09T07:38:52.576Z,3724
2017-05-09T07:40:01.535Z,3728
2017-05-09T07:41:10.752Z,4028
2017-05-09T07:42:19.714Z,4004
2017-05-09T07:43:29.000Z,4300
2017-05-09T07:44:37.994Z,4632
2017-05-09T07:45:46.955Z,4644
2017-05-09T07:46:56.305Z,4460
2017-05-09T07:48:05.385Z,4328
2017-05-09T07:49:14.343Z,4048
2017-05-09T07:50:23.300Z,4808
2017-05-09T07:51:32.258Z,5000
2017-05-09T07:52:41.527Z,4732
2017-05-09T07:53:50.485Z,5560
2017-05-09T07:54:59.445Z,5544
2017-05-09T07:56:08.493Z,5776
2017-05-09T07:57:17.536Z,6084
2017-05-09T07:58:26.785Z,6252
2017-05-09T07:59:35.828Z,6324
2017-05-09T08:00:44.883Z,6324
2017-05-09T08:01:53.837Z,5916
2017-05-09T08:03:02.792Z,5748
2017-05-09T08:04:12.046Z,5344
2017-05-09T08:05:21.007Z,4392
2017-05-09T08:06:29.965Z,3848
2017-05-09T08:07:38.922Z,4120
2017-05-09T08:08:47.874Z,3948
2017-05-09T08:09:57.146Z,3532
2017-05-09T08:11:06.099Z,3236
2017-05-09T08:12:15.143Z,3000
2017-05-09T08:13:24.104Z,3148
2017-05-09T08:14:33.059Z,3584
2017-05-09T08:15:42.319Z,3388
2017-05-09T08:16:51.361Z,4212
2017-05-09T08:18:00.326Z,4260
2017-05-09T08:19:09.289Z,3464
2017-05-09T08:20:18.258Z,3640
2017-05-09T08:21:27.525Z,4536
2017-05-09T08:22:36.484Z,4864
2017-05-09T08:23:45.533Z,5452
2017-05-09T08:24:54.491Z,5100
2017-05-09T08:26:03.447Z,4460
2017-05-09T08:27:12.652Z,4424
2017-05-09T08:28:21.738Z,4628
2017-05-09T08:29:30.698Z,5124
2017-05-09T08:30:39.649Z,5188
2017-05-09T08:31:48.779Z,3820
2017-05-09T08:32:58.037Z,5748
2017-05-09T08:34:07.080Z,5652
2017-05-09T08:35:16.212Z,3052
2017-05-09T08:36:25.167Z,3040
2017-05-09T08:37:34.118Z,2592
2017-05-09T08:38:43.379Z,3456
2017-05-09T08:39:52.334Z,5032
2017-05-09T08:41:01.379Z,3472
2017-05-09T08:42:10.335Z,6920
2017-05-09T08:43:19.296Z,5228
2017-05-09T08:44:28.562Z,5632
2017-05-09T08:45:37.518Z,6236
2017-05-09T08:46:46.486Z,4952
2017-05-09T08:47:55.531Z,3660
2017-05-09T08:49:04.486Z,4360
2017-05-09T08:50:13.829Z,4652
2017-05-09T08:51:22.787Z,4956
2017-05-09T08:52:31.752Z,4864
2017-05-09T08:53:40.710Z,3968
2017-05-09T08:54:49.755Z,4492
2017-05-09T08:55:58.960Z,5840
2017-05-09T08:57:08.004Z,5256
2017-05-09T08:58:16.960Z,4968
2017-05-09T08:59:26.088Z,6256
2017-05-09T09:00:35.050Z,5680
2017-05-09T09:01:44.305Z,4704
2017-05-09T09:02:53.263Z,2300
2017-05-09T09:04:02.223Z,1392
2017-05-09T09:05:11.181Z,1080
2017-05-09T09:06:20.138Z,980
2017-05-09T09:07:29.481Z,1128
2017-05-09T09:08:38.523Z,1460
2017-05-09T09:09:47.472Z,1532
2017-05-09T09:10:56.759Z,1560
2017-05-09T09:12:05.721Z,1488
2017-05-09T09:13:14.979Z,1424
2017-05-09T09:14:23.938Z,1512
2017-05-09T09:15:32.893Z,1660
2017-05-09T09:16:41.846Z,2160
2017-05-09T09:17:50.800Z,2616
2017-05-09T09:19:00.065Z,2332
2017-05-09T09:20:09.032Z,2156
2017-05-09T09:21:17.989Z,2164
2017-05-09T09:22:26.943Z,2224
2017-05-09T09:23:35.894Z,2236
2017-05-09T09:24:45.152Z,2332
2017-05-09T09:25:54.106Z,2356
2017-05-09T09:27:03.066Z,2344
2017-05-09T09:28:12.016Z,2388
2017-05-09T09:29:20.973Z,2432
2017-05-09T09:30:30.224Z,2476
2017-05-09T09:31:39.177Z,2520
2017-05-09T09:32:48.136Z,2588
2017-05-09T09:33:57.422Z,2628
2017-05-09T09:35:06.474Z,2720
2017-05-09T09:36:15.820Z,2780
2017-05-09T09:37:24.863Z,2864
2017-05-09T09:38:33.905Z,3204
2017-05-09T09:39:42.866Z,2492
2017-05-09T09:40:51.835Z,3880
2017-05-09T09:42:01.449Z,3432
2017-05-09T09:43:10.407Z,3556
2017-05-09T09:44:19.444Z,2596
2017-05-09T09:45:28.404Z,2436
2017-05-09T09:46:37.367Z,2452
2017-05-09T09:47:46.711Z,2436
2017-05-09T09:48:55.666Z,2400
2017-05-09T09:50:04.945Z,2436
2017-05-09T09:51:13.897Z,2496
2017-05-09T09:52:22.859Z,2840
2017-05-09T09:53:32.116Z,2500
2017-05-09T09:54:41.070Z,2464
2017-05-09T09:55:50.109Z,2616
2017-05-09T09:56:59.058Z,2664
2017-05-09T09:58:08.334Z,2832
2017-05-09T09:59:17.596Z,2956
2017-05-09T10:00:26.556Z,3376
2017-05-09T10:01:35.512Z,3656
2017-05-09T10:02:44.469Z,3896
2017-05-09T10:03:53.516Z,3984
2017-05-09T10:05:02.857Z,5460
2017-05-09T10:06:11.815Z,4928
2017-05-09T10:07:20.775Z,4192
2017-05-09T10:08:29.727Z,4664
2017-05-09T10:09:38.688Z,3844
2017-05-09T10:10:48.280Z,4740
2017-05-09T10:11:57.237Z,5084
2017-05-09T10:13:06.222Z,4868
2017-05-09T10:14:15.186Z,3656
2017-05-09T10:15:24.142Z,4312
2017-05-09T10:16:33.399Z,3768
2017-05-09T10:17:42.361Z,4384
2017-05-09T10:18:51.407Z,4676
2017-05-09T10:20:00.447Z,5836
2017-05-09T10:21:09.410Z,4792
2017-05-09T10:22:18.758Z,4152
2017-05-09T10:23:27.803Z,4088
2017-05-09T10:24:36.760Z,3076
2017-05-09T10:25:45.723Z,2268
2017-05-09T10:26:54.676Z,1892
2017-05-09T10:28:03.938Z,1448
2017-05-09T10:29:12.895Z,1204
2017-05-09T10:30:21.937Z,1156
2017-05-09T10:31:31.220Z,1180
2017-05-09T10:32:40.182Z,1152
2017-05-09T10:33:49.532Z,976
2017-05-09T10:34:58.486Z,832
2017-05-09T10:36:07.444Z,824
2017-05-09T10:37:16.405Z,872
2017-05-09T10:38:25.443Z,1052
2017-05-09T10:39:34.706Z,1332
2017-05-09T10:40:43.664Z,1532
2017-05-09T10:41:52.618Z,1808
2017-05-09T10:43:01.571Z,2112
2017-05-09T10:44:10.850Z,2800
2017-05-09T10:45:20.056Z,3948
2017-05-09T10:46:29.010Z,4044
2017-05-09T10:47:37.975Z,4452
2017-05-09T10:48:46.926Z,5228
2017-05-09T10:49:55.882Z,5676
2017-05-09T10:51:05.137Z,6196
2017-05-09T10:52:14.098Z,5984
2017-05-09T10:53:23.177Z,5252
2017-05-09T10:54:32.142Z,4980
2017-05-09T10:55:41.103Z,4328
2017-05-09T10:56:50.357Z,3796
2017-05-09T10:57:59.310Z,3372
2017-05-09T10:59:08.271Z,2904
2017-05-09T11:00:17.546Z,2136
2017-05-09T11:01:26.592Z,1876
2017-05-09T11:02:35.851Z,1796
2017-05-09T11:03:44.807Z,1720
2017-05-09T11:04:53.764Z,1440
2017-05-09T11:06:02.719Z,1300
2017-05-09T11:07:11.677Z,1224
2017-05-09T11:08:20.887Z,1080
2017-05-09T11:09:29.931Z,948
2017-05-09T11:10:38.881Z,856
2017-05-09T11:11:47.833Z,800
2017-05-09T11:12:56.794Z,776
2017-05-09T11:14:05.996Z,812
2017-05-09T11:15:14.952Z,904
2017-05-09T11:16:23.905Z,1056
2017-05-09T11:17:32.864Z,1176
2017-05-09T11:18:41.820Z,1164
2017-05-09T11:19:51.073Z,1120
2017-05-09T11:21:00.027Z,1136
2017-05-09T11:22:09.031Z,1460
2017-05-09T11:23:17.986Z,1560
2017-05-09T11:24:26.940Z,1584
2017-05-09T11:25:36.200Z,1600
2017-05-09T11:26:45.156Z,1572
2017-05-09T11:27:54.106Z,1528
2017-05-09T11:29:03.142Z,1560
2017-05-09T11:30:12.100Z,1564
2017-05-09T11:31:21.355Z,1524
2017-05-09T11:32:30.337Z,1484
2017-05-09T11:33:39.293Z,1624
2017-05-09T11:34:48.247Z,1896
2017-05-09T11:35:57.203Z,1984
2017-05-09T11:37:06.459Z,1852
2017-05-09T11:38:15.419Z,1696
2017-05-09T11:39:24.374Z,1640
2017-05-09T11:40:33.327Z,1704
2017-05-09T11:41:42.279Z,1716
2017-05-09T11:42:51.531Z,1560
2017-05-09T11:44:00.482Z,1352
2017-05-09T11:45:09.523Z,1176
2017-05-09T11:46:18.477Z,1376
2017-05-09T11:47:27.426Z,1544
2017-05-09T11:48:36.682Z,1572
2017-05-09T11:49:45.636Z,1468
2017-05-09T11:50:54.926Z,1540
2017-05-09T11:52:03.884Z,1324
2017-05-09T11:53:13.168Z,1456
2017-05-09T11:54:22.421Z,1876
2017-05-09T11:55:31.373Z,2404
2017-05-09T11:56:40.410Z,2700
2017-05-09T11:57:49.362Z,2844
2017-05-09T11:58:58.322Z,2832
2017-05-09T12:00:07.666Z,2848
2017-05-09T12:01:16.614Z,2796
2017-05-09T12:02:25.565Z,2720
2017-05-09T12:03:34.521Z,2712
2017-05-09T12:04:43.484Z,2816
2017-05-09T12:05:52.691Z,3012
2017-05-09T12:07:01.644Z,3184
2017-05-09T12:08:10.609Z,3220
2017-05-09T12:09:19.560Z,3076
2017-05-09T12:10:28.680Z,2700
2017-05-09T12:11:37.938Z,2308
2017-05-09T12:12:46.900Z,2008
2017-05-09T12:13:55.850Z,1836
2017-05-09T12:15:04.802Z,1796
2017-05-09T12:16:13.760Z,1832
2017-05-09T12:17:22.966Z,1904
2017-05-09T12:18:31.920Z,1908
2017-05-09T12:19:40.872Z,1908
2017-05-09T12:20:49.828Z,1904
2017-05-09T12:21:59.111Z,1884
2017-05-09T12:23:08.314Z,1832
2017-05-09T12:24:17.266Z,1708
2017-05-09T12:25:26.308Z,1572
2017-05-09T12:26:35.345Z,1484
2017-05-09T12:27:44.305Z,1424
2017-05-09T12:28:53.511Z,1432
2017-05-09T12:30:02.467Z,1460
2017-05-09T12:31:11.420Z,1536
2017-05-09T12:32:20.371Z,1652
2017-05-09T12:33:29.324Z,1784
2017-05-09T12:34:38.612Z,1872
2017-05-09T12:35:47.646Z,2008
2017-05-09T12:36:56.601Z,2128
2017-05-09T12:38:05.551Z,2228
2017-05-09T12:39:14.514Z,2296
2017-05-09T12:40:23.765Z,2308
2017-05-09T12:41:32.722Z,2360
2017-05-09T12:42:41.686Z,2432
2017-05-09T12:43:50.666Z,2568
2017-05-09T12:44:59.625Z,2648
2017-05-09T12:46:08.914Z,2732
2017-05-09T12:47:17.868Z,2792
2017-05-09T12:48:26.816Z,2840
2017-05-09T12:49:35.771Z,2904
2017-05-09T12:50:44.719Z,2984
2017-05-09T12:51:53.975Z,3044
2017-05-09T12:53:02.941Z,3108
2017-05-09T12:54:11.892Z,3256
2017-05-09T12:55:20.842Z,3348
2017-05-09T12:56:29.799Z,3528
2017-05-09T12:57:39.055Z,3556
2017-05-09T12:58:48.005Z,3552
2017-05-09T12:59:56.958Z,3220
2017-05-09T13:01:05.914Z,3040
2017-05-09T13:02:15.279Z,3000
2017-05-09T13:03:24.489Z,2892
2017-05-09T13:04:33.443Z,2820
2017-05-09T13:05:42.393Z,2864
2017-05-09T13:06:51.345Z,2984
2017-05-09T13:08:00.303Z,3196
2017-05-09T13:09:09.555Z,3336
2017-05-09T13:10:18.506Z,3508
2017-05-09T13:11:27.457Z,3504
2017-05-09T13:12:36.417Z,3380
2017-05-09T13:13:45.405Z,3336
2017-05-09T13:14:54.611Z,3372
2017-05-09T13:16:03.567Z,3328
2017-05-09T13:17:12.519Z,3168
2017-05-09T13:18:21.469Z,2992
2017-05-09T13:19:30.425Z,2800
2017-05-09T13:20:39.769Z,2556
2017-05-09T13:21:48.724Z,2340
2017-05-09T13:22:57.675Z,2136
2017-05-09T13:24:06.628Z,1940
2017-05-09T13:25:15.585Z,1836
2017-05-09T13:26:24.844Z,1832
2017-05-09T13:27:33.802Z,1792
2017-05-09T13:28:42.753Z,1660
2017-05-09T13:29:51.714Z,1540
2017-05-09T13:31:00.666Z,1508
2017-05-09T13:32:09.923Z,1576
2017-05-09T13:33:18.900Z,1672
2017-05-09T13:34:27.856Z,1824
2017-05-09T13:35:36.809Z,2008
2017-05-09T13:36:46.085Z,2280
2017-05-09T13:37:55.346Z,2636
2017-05-09T13:39:04.297Z,3080
2017-05-09T13:40:13.341Z,3548
2017-05-09T13:41:22.299Z,3636
2017-05-09T13:42:31.259Z,3580
2017-05-09T13:43:40.470Z,3368
2017-05-09T13:44:49.425Z,3084
2017-05-09T13:45:58.470Z,2768
2017-05-09T13:47:07.424Z,2456
2017-05-09T13:48:16.376Z,2236
2017-05-09T13:49:25.633Z,2076
2017-05-09T13:50:34.592Z,1956
2017-05-09T13:51:43.638Z,1900
2017-05-09T13:52:52.920Z,2112
2017-05-09T13:54:02.194Z,2332
2017-05-09T13:55:11.546Z,2416
2017-05-09T13:56:20.543Z,2564
2017-05-09T13:57:29.541Z,2680
2017-05-09T13:58:38.502Z,2832
2017-05-09T13:59:47.458Z,2936
2017-05-09T14:00:57.245Z,3124
2017-05-09T14:02:06.603Z,3360
2017-05-09T14:03:15.802Z,3412
2017-05-09T14:04:25.064Z,3348
2017-05-09T14:05:34.210Z,3316
2017-05-09T14:06:43.822Z,3360
2017-05-09T14:07:52.999Z,3620
2017-05-09T14:09:02.051Z,3256
2017-05-09T14:10:11.134Z,3120
2017-05-09T14:11:20.218Z,3036
2017-05-09T14:12:29.964Z,2876
2017-05-09T14:13:39.104Z,2592
2017-05-09T14:14:48.310Z,2724
2017-05-09T14:15:57.626Z,2828
2017-05-09T14:17:06.971Z,2600
2017-05-09T14:18:16.402Z,2060
2017-05-09T14:19:25.629Z,1504
2017-05-09T14:20:35.287Z,1892
2017-05-09T14:21:44.311Z,1592
2017-05-09T14:22:53.697Z,1268
2017-05-09T14:24:03.124Z,1280
2017-05-09T14:25:12.347Z,1660
2017-05-09T14:26:21.339Z,1088
2017-05-09T14:27:30.370Z,1308
2017-05-09T14:28:39.545Z,1652
2017-05-09T14:29:49.243Z,1820
2017-05-09T14:30:58.202Z,1728
2017-05-09T14:32:07.239Z,1696
2017-05-09T14:33:16.603Z,1628
2017-05-09T14:34:25.744Z,1328
2017-05-09T14:35:35.447Z,1404
2017-05-09T14:36:44.553Z,1828
2017-05-09T14:37:53.554Z,1688
2017-05-09T14:39:02.644Z,1576
2017-05-09T14:40:11.598Z,1704
2017-05-09T14:41:20.837Z,1536
2017-05-09T14:42:29.790Z,1256
2017-05-09T14:43:38.743Z,1540
2017-05-09T14:44:47.701Z,1600
2017-05-09T14:45:56.664Z,1552
2017-05-09T14:47:06.011Z,1484
2017-05-09T14:48:15.047Z,1396
2017-05-09T14:49:24.090Z,1392
2017-05-09T14:50:33.045Z,1460
2017-05-09T14:51:42.101Z,1392
2017-05-09T14:52:51.349Z,1428
2017-05-09T14:54:00.306Z,1620
2017-05-09T14:55:09.298Z,1676
2017-05-09T14:56:18.346Z,1612
2017-05-09T14:57:27.304Z,1488
2017-05-09T14:58:36.983Z,1476
2017-05-09T14:59:45.938Z,1592
2017-05-09T15:00:54.898Z,1772
2017-05-09T15:02:03.856Z,2004
2017-05-09T15:03:12.812Z,2108
2017-05-09T15:04:22.015Z,2116
2017-05-09T15:05:30.965Z,2184
2017-05-09T15:06:39.923Z,2260
2017-05-09T15:07:48.910Z,2192
2017-05-09T15:08:57.921Z,2252
2017-05-09T15:10:07.579Z,2344
2017-05-09T15:11:16.617Z,2512
2017-05-09T15:12:25.704Z,2604
2017-05-09T15:13:34.779Z,2448
2017-05-09T15:14:43.731Z,2456
2017-05-09T15:15:53.029Z,2452
2017-05-09T15:17:01.982Z,2500
2017-05-09T15:18:10.939Z,2508
2017-05-09T15:19:19.902Z,2472
2017-05-09T15:20:28.854Z,2364
2017-05-09T15:21:38.112Z,2244
2017-05-09T15:22:47.073Z,2212
2017-05-09T15:23:56.034Z,2112
2017-05-09T15:25:05.079Z,1940
2017-05-09T15:26:14.376Z,1796
2017-05-09T15:27:24.400Z,1792
2017-05-09T15:28:33.451Z,1860
2017-05-09T15:29:42.402Z,1900
2017-05-09T15:30:51.357Z,1852
2017-05-09T15:32:00.315Z,1780
2017-05-09T15:33:09.571Z,1756
2017-05-09T15:34:18.564Z,1712
2017-05-09T15:35:27.528Z,1552
2017-05-09T15:36:36.573Z,1376
2017-05-09T15:37:45.595Z,1236
2017-05-09T15:38:54.855Z,1184
2017-05-09T15:40:03.816Z,1148
2017-05-09T15:41:12.860Z,1104
2017-05-09T15:42:21.812Z,1048
2017-05-09T15:43:30.767Z,956